Time;durP1;ratioP1;P1;durP2;ratioP2;P2;SDS_P1;SDS_P2;PMS_P1;PMS_P2;Temp;Humidity;BMP_temperature;BMP_pressure;BME280_temperature;BME280_humidity;BME280_pressure;Samples;Min_cycle;Max_cycle;Signal;HPM_P1;HPM_P2
2021/05/27 00:03:33;;;;;;;9.13;7.83;;;;;10.70;101121.00;;;;10450078;28;20202;-81
2021/05/27 00:08:35;;;;;;;10.77;8.23;;;;;10.60;101117.00;;;;10449313;28;20228;-80
2021/05/27 00:13:46;;;;;;;12.07;9.90;;;;;10.50;101116.00;;;;10481152;28;20211;-80
2021/05/27 00:18:52;;;;;;;11.30;10.10;;;;;10.40;101130.00;;;;10471779;28;20220;-81
2021/05/27 00:23:54;;;;;;;13.57;10.20;;;;;10.40;101128.00;;;;10521279;28;20251;-80
2021/05/27 00:28:55;;;;;;;11.60;9.97;;;;;10.40;101139.00;;;;10488147;28;20193;-81
2021/05/27 00:33:57;;;;;;;15.50;10.37;;;;;10.40;101129.00;;;;10467256;28;20270;-81
2021/05/27 00:39:01;;;;;;;13.13;10.27;;;;;10.40;101139.00;;;;10485253;28;20225;-81
2021/05/27 00:44:27;;;;;;;15.57;11.23;;;;;10.50;101140.00;;;;10490130;28;20201;-81
2021/05/27 00:49:29;;;;;;;14.57;11.13;;;;;10.60;101142.00;;;;10490516;28;20204;-80
2021/05/27 00:54:31;;;;;;;13.03;9.97;;;;;10.60;101145.00;;;;10503694;28;20213;-81
2021/05/27 00:59:33;;;;;;;13.13;10.17;;;;;10.70;101137.00;;;;10503791;28;20224;-81
2021/05/27 01:04:36;;;;;;;14.47;11.13;;;;;10.70;101133.00;;;;10506788;28;20232;-80
2021/05/27 01:09:57;;;;;;;15.43;11.83;;;;;10.80;101139.00;;;;10488456;28;20200;-79
2021/05/27 01:20:20;;;;;;;17.40;14.37;;;;;10.80;101145.00;;;;10488803;28;20262;-80
2021/05/27 01:25:22;;;;;;;18.80;14.37;;;;;10.90;101149.00;;;;10448830;28;20294;-81
2021/05/27 01:30:24;;;;;;;18.53;14.20;;;;;10.90;101140.00;;;;10486320;28;20198;-80
2021/05/27 01:35:27;;;;;;;19.57;15.03;;;;;10.90;101137.00;;;;10486811;28;20220;-81
2021/05/27 01:40:29;;;;;;;15.77;13.83;;;;;10.90;101142.00;;;;10472630;28;20216;-81
2021/05/27 01:45:33;;;;;;;17.80;14.30;;;;;10.90;101136.00;;;;10459596;28;20208;-81
2021/05/27 01:50:43;;;;;;;16.20;13.70;;;;;10.90;101139.00;;;;10487385;28;20197;-81
2021/05/27 01:55:48;;;;;;;18.13;14.93;;;;;10.90;101136.00;;;;10468150;28;20296;-80
2021/05/27 02:00:51;;;;;;;17.90;13.60;;;;;10.90;101141.00;;;;10445950;28;20221;-81
2021/05/27 02:06:01;;;;;;;19.47;13.73;;;;;10.80;101139.00;;;;10455402;28;20246;-81
2021/05/27 02:11:03;;;;;;;19.67;13.53;;;;;10.70;101140.00;;;;10468454;28;20713;-81
2021/05/27 02:16:09;;;;;;;17.13;14.30;;;;;10.80;101138.00;;;;10473278;28;20648;-80
2021/05/27 02:21:11;;;;;;;20.37;13.63;;;;;10.70;101138.00;;;;10470947;28;20224;-80
2021/05/27 02:26:13;;;;;;;20.07;14.87;;;;;10.60;101138.00;;;;10467739;28;20201;-80
2021/05/27 02:31:23;;;;;;;25.07;15.80;;;;;10.70;101148.00;;;;10464219;28;20196;-79
2021/05/27 02:36:28;;;;;;;24.90;16.70;;;;;10.80;101152.00;;;;10466005;28;20216;-81
2021/05/27 02:41:31;;;;;;;26.40;16.23;;;;;10.90;101152.00;;;;10448659;28;20232;-81
2021/05/27 02:46:35;;;;;;;27.70;18.20;;;;;10.90;101153.00;;;;10448998;28;20319;-80
2021/05/27 02:51:37;;;;;;;23.43;16.83;;;;;11.00;101153.00;;;;10472056;28;20297;-80
2021/05/27 02:56:39;;;;;;;26.83;17.97;;;;;11.00;101148.00;;;;10456129;28;20206;-80
2021/05/27 03:01:42;;;;;;;24.67;17.80;;;;;11.00;101160.00;;;;10453410;28;20891;-80
2021/05/27 03:06:45;;;;;;;27.83;18.70;;;;;11.00;101153.00;;;;10485714;28;20185;-80
2021/05/27 03:11:49;;;;;;;26.53;18.07;;;;;11.00;101155.00;;;;10499662;28;20186;-80
2021/05/27 03:16:52;;;;;;;25.17;19.40;;;;;11.00;101164.00;;;;10469807;28;20664;-80
2021/05/27 03:21:54;;;;;;;28.00;18.37;;;;;10.90;101156.00;;;;10469104;28;20256;-80
2021/05/27 03:26:56;;;;;;;27.50;18.53;;;;;10.90;101153.00;;;;10508483;28;20605;-80
2021/05/27 03:32:02;;;;;;;28.83;19.23;;;;;10.80;101151.00;;;;10468536;28;20240;-80
2021/05/27 03:37:06;;;;;;;30.90;20.50;;;;;10.80;101155.00;;;;10477981;28;20204;-79
2021/05/27 03:42:09;;;;;;;25.67;18.20;;;;;10.90;101149.00;;;;10493949;28;20315;-79
2021/05/27 03:47:12;;;;;;;26.97;19.10;;;;;10.90;101164.00;;;;10493051;28;20207;-79
2021/05/27 03:52:14;;;;;;;27.77;19.47;;;;;10.90;101160.00;;;;10506968;28;20201;-80
2021/05/27 03:57:16;;;;;;;25.00;18.03;;;;;10.90;101164.00;;;;10509663;28;20224;-80
2021/05/27 04:02:18;;;;;;;31.80;19.47;;;;;10.90;101171.00;;;;10491419;28;20715;-81
2021/05/27 04:07:43;;;;;;;33.33;20.23;;;;;11.00;101177.00;;;;10513024;28;20324;-80
2021/05/27 04:12:48;;;;;;;32.20;20.10;;;;;11.00;101184.00;;;;10433603;28;20224;-80
2021/05/27 04:18:05;;;;;;;32.90;19.03;;;;;11.00;101177.00;;;;10463847;28;20218;-79
2021/05/27 04:23:12;;;;;;;28.80;20.50;;;;;11.00;101187.00;;;;10477401;28;20707;-79
2021/05/27 04:28:14;;;;;;;29.67;21.00;;;;;11.00;101184.00;;;;10513272;28;20202;-79
2021/05/27 04:33:15;;;;;;;31.83;21.10;;;;;11.00;101193.00;;;;10505760;28;20221;-81
2021/05/27 04:38:17;;;;;;;31.03;19.87;;;;;11.10;101192.00;;;;10505399;28;20212;-80
2021/05/27 04:43:20;;;;;;;33.13;21.57;;;;;11.10;101198.00;;;;10498445;28;20198;-80
2021/05/27 04:48:22;;;;;;;25.90;18.87;;;;;11.20;101205.00;;;;10443770;28;20263;-80
2021/05/27 04:53:26;;;;;;;32.00;22.27;;;;;11.20;101202.00;;;;10449320;28;20202;-79
2021/05/27 04:58:29;;;;;;;33.50;23.40;;;;;11.30;101209.00;;;;10448541;28;20248;-80
2021/05/27 05:03:31;;;;;;;33.17;23.47;;;;;11.40;101215.00;;;;10465278;28;20725;-80
2021/05/27 05:08:33;;;;;;;37.37;23.73;;;;;11.40;101219.00;;;;10446092;28;20259;-80
2021/05/27 05:13:35;;;;;;;38.90;22.47;;;;;11.50;101223.00;;;;10447023;28;20205;-80
2021/05/27 05:18:41;;;;;;;32.33;22.70;;;;;11.60;101227.00;;;;10448058;28;20217;-80
2021/05/27 05:23:43;;;;;;;31.80;22.57;;;;;11.70;101234.00;;;;10458749;28;20200;-79
2021/05/27 05:28:44;;;;;;;29.60;23.70;;;;;11.80;101228.00;;;;10487641;28;20200;-79
2021/05/27 05:33:48;;;;;;;35.70;23.10;;;;;12.10;101237.00;;;;10485581;28;20221;-80
2021/05/27 05:38:50;;;;;;;33.80;22.33;;;;;12.50;101241.00;;;;10477290;28;20247;-81
2021/05/27 05:43:52;;;;;;;31.67;21.10;;;;;12.50;101251.00;;;;10465023;28;20215;-81
2021/05/27 05:48:54;;;;;;;36.53;21.83;;;;;12.50;101262.00;;;;10444103;28;20619;-79
2021/05/27 05:53:56;;;;;;;25.90;20.77;;;;;12.20;101265.00;;;;10487039;28;20266;-81
2021/05/27 05:58:57;;;;;;;25.60;20.07;;;;;12.40;101268.00;;;;10503492;28;20220;-81
2021/05/27 06:03:59;;;;;;;28.30;19.50;;;;;12.80;101271.00;;;;10504028;28;20227;-80
2021/05/27 06:09:37;;;;;;;29.50;20.83;;;;;12.80;101293.00;;;;10480728;28;20231;-81
2021/05/27 06:14:38;;;;;;;24.40;18.60;;;;;12.70;101293.00;;;;10506364;28;20196;-81
2021/05/27 06:19:40;;;;;;;26.17;19.07;;;;;12.60;101307.00;;;;10430834;28;20253;-81
2021/05/27 06:24:49;;;;;;;25.93;19.27;;;;;12.40;101306.00;;;;10481787;28;20200;-81
2021/05/27 06:29:50;;;;;;;23.07;16.83;;;;;12.20;101323.00;;;;10509684;28;20604;-80
2021/05/27 06:34:52;;;;;;;26.03;19.37;;;;;12.00;101325.00;;;;10497294;28;20251;-80
2021/05/27 06:39:54;;;;;;;21.63;18.67;;;;;12.70;101316.00;;;;10495434;28;20231;-81
2021/05/27 06:44:56;;;;;;;24.00;17.47;;;;;13.10;101330.00;;;;10496382;28;20200;-81
2021/05/27 06:49:58;;;;;;;22.03;16.53;;;;;13.20;101327.00;;;;10509710;28;20194;-81
2021/05/27 06:55:01;;;;;;;21.10;15.73;;;;;13.00;101333.00;;;;10504306;28;20205;-80
2021/05/27 07:00:05;;;;;;;20.80;15.47;;;;;13.30;101334.00;;;;10478632;28;20221;-81
2021/05/27 07:05:07;;;;;;;22.23;16.57;;;;;13.80;101334.00;;;;10495273;28;20746;-79
2021/05/27 07:10:10;;;;;;;20.57;15.07;;;;;14.40;101331.00;;;;10460223;28;20209;-79
2021/05/27 07:15:13;;;;;;;22.03;13.70;;;;;14.60;101340.00;;;;10464361;28;20207;-80
2021/05/27 07:20:16;;;;;;;16.00;12.63;;;;;14.30;101338.00;;;;10477340;28;20243;-80
2021/05/27 07:25:23;;;;;;;16.43;12.23;;;;;13.70;101345.00;;;;10510036;28;20227;-80
2021/05/27 07:30:27;;;;;;;19.67;12.73;;;;;14.00;101351.00;;;;10521967;28;20236;-80
2021/05/27 07:35:29;;;;;;;16.37;12.00;;;;;14.20;101352.00;;;;10476689;28;20579;-80
2021/05/27 07:40:33;;;;;;;16.10;11.27;;;;;14.30;101356.00;;;;10457256;28;20618;-81
2021/05/27 07:45:35;;;;;;;15.90;11.30;;;;;14.60;101359.00;;;;10467369;28;20229;-80
2021/05/27 07:50:37;;;;;;;14.43;10.23;;;;;15.30;101356.00;;;;10433166;28;20197;-80
2021/05/27 07:55:39;;;;;;;13.07;8.07;;;;;15.80;101351.00;;;;10470039;28;20205;-81
2021/05/27 08:00:41;;;;;;;10.40;9.10;;;;;16.20;101356.00;;;;10502721;28;20577;-80
2021/05/27 08:05:43;;;;;;;14.87;9.30;;;;;16.10;101358.00;;;;10465061;28;20420;-80
2021/05/27 08:10:46;;;;;;;13.30;10.40;;;;;17.00;101344.00;;;;10449448;28;20297;-81
2021/05/27 08:15:48;;;;;;;15.93;10.43;;;;;16.30;101348.00;;;;10456730;28;20326;-81
2021/05/27 08:20:50;;;;;;;17.90;10.77;;;;;15.60;101360.00;;;;10467829;28;20218;-80
2021/05/27 08:25:52;;;;;;;13.10;9.80;;;;;15.60;101363.00;;;;10436533;28;20197;-81
2021/05/27 08:30:54;;;;;;;16.57;12.17;;;;;16.70;101358.00;;;;10474165;28;20719;-80
2021/05/27 08:35:56;;;;;;;12.70;11.30;;;;;17.20;101363.00;;;;10488239;28;20308;-80
2021/05/27 08:40:58;;;;;;;11.53;10.33;;;;;17.70;101359.00;;;;10491540;28;20222;-80
2021/05/27 08:46:03;;;;;;;12.07;10.70;;;;;18.30;101345.00;;;;10467236;28;20695;-79
2021/05/27 08:51:05;;;;;;;15.87;11.63;;;;;16.70;101359.00;;;;10480119;28;20281;-81
2021/05/27 08:56:07;;;;;;;13.10;11.70;;;;;16.00;101368.00;;;;10462083;28;20210;-80
2021/05/27 09:01:10;;;;;;;15.73;11.87;;;;;16.50;101364.00;;;;10504554;28;20216;-80
2021/05/27 09:06:15;;;;;;;13.80;11.10;;;;;17.00;101376.00;;;;10489791;28;20204;-80
2021/05/27 09:11:24;;;;;;;13.73;10.93;;;;;16.10;101377.00;;;;10491181;28;20234;-80
2021/05/27 09:16:27;;;;;;;13.17;11.63;;;;;15.60;101379.00;;;;10487581;28;20204;-81
2021/05/27 09:21:35;;;;;;;12.20;10.97;;;;;15.70;101380.00;;;;10489621;28;20276;-81
2021/05/27 09:26:54;;;;;;;16.33;12.60;;;;;15.40;101381.00;;;;10473773;28;20218;-81
2021/05/27 09:32:06;;;;;;;13.50;11.53;;;;;15.00;101373.00;;;;10503732;28;20670;-80
2021/05/27 09:37:28;;;;;;;18.33;13.13;;;;;14.70;101381.00;;;;10490050;28;20224;-80
2021/05/27 09:42:30;;;;;;;14.90;12.37;;;;;14.30;101385.00;;;;10489599;28;20247;-80
2021/05/27 09:47:35;;;;;;;18.67;11.80;;;;;13.80;101390.00;;;;10485880;28;20207;-80
2021/05/27 09:52:45;;;;;;;17.93;13.23;;;;;13.50;101406.00;;;;10504139;28;20208;-80
2021/05/27 09:57:49;;;;;;;14.20;11.53;;;;;13.70;101414.00;;;;10451039;28;20259;-80
2021/05/27 10:02:51;;;;;;;13.80;12.33;;;;;15.00;101420.00;;;;10495603;28;20231;-79
2021/05/27 10:07:55;;;;;;;14.60;13.03;;;;;16.50;101428.00;;;;10471947;28;20197;-80
2021/05/27 10:13:22;;;;;;;12.63;10.57;;;;;19.00;101401.00;;;;10490562;28;20208;-79
2021/05/27 10:18:24;;;;;;;11.15;9.32;;;;;20.40;101400.00;;;;10493718;28;20293;-80
2021/05/27 10:23:27;;;;;;;9.45;7.68;;;;;20.00;101406.00;;;;10481605;28;20206;-79
2021/05/27 10:28:30;;;;;;;9.20;7.50;;;;;19.20;101402.00;;;;10476950;28;20219;-81
2021/05/27 10:33:37;;;;;;;9.68;6.45;;;;;18.10;101411.00;;;;10481115;28;20213;-80
2021/05/27 10:44:00;;;;;;;8.65;5.22;;;;;17.10;101413.00;;;;10500303;28;20296;-80
2021/05/27 10:49:03;;;;;;;10.50;6.20;;;;;18.80;101400.00;;;;10532375;28;20292;-80
2021/05/27 10:54:07;;;;;;;4.78;4.28;;;;;19.60;101397.00;;;;10512416;28;20201;-80
2021/05/27 10:59:16;;;;;;;4.88;4.20;;;;;18.30;101402.00;;;;10513511;28;20245;-81
2021/05/27 11:04:24;;;;;;;4.53;3.35;;;;;18.90;101381.00;;;;10471880;28;20307;-80
2021/05/27 11:09:31;;;;;;;4.93;4.03;;;;;18.80;101418.00;;;;10493950;28;20201;-79
2021/05/27 11:14:36;;;;;;;4.50;3.83;;;;;20.10;101399.00;;;;10512209;28;20559;-80
2021/05/27 11:25:10;;;;;;;8.18;4.65;;;;;20.00;101404.00;;;;10497548;28;20215;-81
2021/05/27 11:30:16;;;;;;;8.00;4.53;;;;;22.10;101397.00;;;;10504252;28;20209;-81
2021/05/27 11:35:19;;;;;;;6.47;4.65;;;;;20.50;101405.00;;;;10470998;28;20841;-81
2021/05/27 11:40:24;;;;;;;5.63;4.28;;;;;19.60;101414.00;;;;10478708;28;20214;-82
2021/05/27 11:45:27;;;;;;;8.65;4.65;;;;;19.80;101410.00;;;;10458295;28;20287;-81
2021/05/27 11:50:29;;;;;;;5.10;4.15;;;;;20.80;101421.00;;;;10463007;28;20202;-81
2021/05/27 11:55:32;;;;;;;5.03;4.30;;;;;21.10;101420.00;;;;10479832;28;20214;-81
2021/05/27 12:00:34;;;;;;;6.60;5.15;;;;;20.70;101414.00;;;;10525033;28;20224;-82
2021/05/27 12:05:36;;;;;;;6.20;5.57;;;;;21.10;101426.00;;;;10507928;28;20224;-80
2021/05/27 12:10:45;;;;;;;7.20;5.30;;;;;21.30;101410.00;;;;10459724;28;20220;-81
2021/05/27 12:15:48;;;;;;;5.55;4.55;;;;;19.80;101437.00;;;;10503965;28;20681;-82
2021/05/27 12:20:51;;;;;;;6.82;5.78;;;;;19.20;101414.00;;;;10499336;28;20274;-81
2021/05/27 12:25:54;;;;;;;5.50;4.82;;;;;21.10;101425.00;;;;10492476;28;20216;-82
2021/05/27 12:30:58;;;;;;;8.18;5.22;;;;;21.00;101431.00;;;;10476776;28;20201;-81
2021/05/27 12:36:05;;;;;;;6.97;5.65;;;;;19.90;101439.00;;;;10492422;28;20216;-82
2021/05/27 12:41:08;;;;;;;4.72;4.18;;;;;20.50;101440.00;;;;10507351;28;20699;-82
2021/05/27 12:46:12;;;;;;;4.93;4.22;;;;;20.30;101449.00;;;;10446095;28;20216;-81
2021/05/27 12:51:14;;;;;;;6.35;4.70;;;;;20.30;101436.00;;;;10435460;28;20703;-80
2021/05/27 12:56:22;;;;;;;5.55;4.05;;;;;21.30;101450.00;;;;10472761;28;20204;-82
2021/05/27 13:01:36;;;;;;;7.20;3.92;;;;;20.00;101461.00;;;;10463436;28;20225;-83
2021/05/27 13:06:39;;;;;;;6.63;3.65;;;;;20.20;101458.00;;;;10467637;28;20197;-82
2021/05/27 13:11:47;;;;;;;4.78;2.38;;;;;21.40;101457.00;;;;10475052;28;20196;-82
2021/05/27 13:17:01;;;;;;;4.97;2.95;;;;;20.90;101461.00;;;;10520158;28;20204;-81
2021/05/27 13:22:19;;;;;;;8.85;3.58;;;;;22.20;101473.00;;;;10490706;28;20560;-82
2021/05/27 13:32:32;;;;;;;6.70;2.90;;;;;21.10;101484.00;;;;10468689;28;20739;-83
2021/05/27 13:37:39;;;;;;;5.95;3.08;;;;;19.00;101495.00;;;;10488549;28;20208;-82
2021/05/27 13:42:42;;;;;;;4.72;3.20;;;;;19.60;101485.00;;;;10474910;28;20224;-82
2021/05/27 13:47:44;;;;;;;7.95;3.45;;;;;20.20;101484.00;;;;10466371;28;20689;-83
2021/05/27 13:52:46;;;;;;;6.57;3.20;;;;;25.20;101465.00;;;;10501629;28;20209;-81
2021/05/27 13:57:48;;;;;;;5.53;3.10;;;;;22.40;101504.00;;;;10473728;28;20225;-81
2021/05/27 14:02:50;;;;;;;5.32;3.03;;;;;19.40;101501.00;;;;10466890;28;20222;-81
2021/05/27 14:07:53;;;;;;;4.95;3.13;;;;;21.70;101510.00;;;;10461821;28;20208;-82
2021/05/27 14:12:55;;;;;;;5.53;3.17;;;;;20.50;101493.00;;;;10474053;28;20218;-81
2021/05/27 14:17:57;;;;;;;6.50;3.28;;;;;20.00;101511.00;;;;10432012;28;20248;-82
2021/05/27 14:22:58;;;;;;;7.45;3.33;;;;;18.90;101516.00;;;;10425521;28;20240;-82
2021/05/27 14:28:01;;;;;;;5.53;3.13;;;;;18.40;101531.00;;;;10479885;28;20250;-80
2021/05/27 14:33:03;;;;;;;8.02;3.45;;;;;18.60;101522.00;;;;10478203;28;20232;-81
2021/05/27 14:38:05;;;;;;;4.70;3.20;;;;;19.00;101521.00;;;;10517055;28;20255;-79
2021/05/27 14:43:07;;;;;;;5.53;2.63;;;;;19.30;101523.00;;;;10466677;28;20229;-80
2021/05/27 14:48:09;;;;;;;2.90;2.58;;;;;18.40;101522.00;;;;10473040;28;20243;-80
2021/05/27 14:53:11;;;;;;;5.38;2.63;;;;;19.20;101547.00;;;;10467478;28;20236;-80
2021/05/27 14:58:12;;;;;;;4.20;2.50;;;;;18.30;101538.00;;;;10471487;28;20209;-80
2021/05/27 15:03:15;;;;;;;3.00;2.00;;;;;19.00;101535.00;;;;10470128;28;20245;-79
2021/05/27 15:08:17;;;;;;;3.10;2.40;;;;;18.70;101529.00;;;;10483445;28;20192;-78
2021/05/27 15:13:19;;;;;;;3.70;2.40;;;;;17.80;101545.00;;;;10459672;28;20667;-80
2021/05/27 15:18:21;;;;;;;4.95;3.35;;;;;18.00;101552.00;;;;10462022;28;20219;-79
2021/05/27 15:23:23;;;;;;;7.72;3.80;;;;;18.30;101554.00;;;;10457007;28;20221;-80
2021/05/27 15:28:26;;;;;;;7.20;4.57;;;;;17.70;101558.00;;;;10471751;28;20222;-81
2021/05/27 15:33:28;;;;;;;11.47;4.20;;;;;17.10;101568.00;;;;10507439;28;20213;-80
2021/05/27 15:38:31;;;;;;;6.47;3.70;;;;;16.50;101568.00;;;;10472075;28;20197;-79
2021/05/27 15:43:32;;;;;;;6.10;4.07;;;;;16.20;101581.00;;;;10464231;28;20221;-80
2021/05/27 15:48:34;;;;;;;7.03;3.73;;;;;16.70;101568.00;;;;10480583;28;20555;-81
2021/05/27 15:53:36;;;;;;;6.67;3.67;;;;;16.70;101572.00;;;;10508840;28;20263;-81
2021/05/27 15:58:40;;;;;;;8.13;4.47;;;;;16.20;101586.00;;;;10501770;28;20302;-81
2021/05/27 16:03:42;;;;;;;9.20;3.93;;;;;15.80;101590.00;;;;10477865;28;20724;-82
2021/05/27 16:08:44;;;;;;;6.80;3.80;;;;;15.90;101597.00;;;;10487559;28;20656;-81
2021/05/27 16:13:45;;;;;;;8.60;3.77;;;;;15.90;101600.00;;;;10461561;28;20225;-80
2021/05/27 16:18:47;;;;;;;11.17;3.70;;;;;15.90;101590.00;;;;10465426;28;20197;-80
2021/05/27 16:23:49;;;;;;;7.67;3.80;;;;;15.90;101598.00;;;;10507698;28;20271;-81
2021/05/27 16:28:51;;;;;;;9.53;3.83;;;;;15.90;101606.00;;;;10489373;28;20227;-81
2021/05/27 16:34:02;;;;;;;12.43;4.30;;;;;15.90;101602.00;;;;10506099;28;20228;-81
2021/05/27 16:39:06;;;;;;;9.03;5.00;;;;;15.90;101597.00;;;;10505726;28;20681;-81
2021/05/27 16:44:08;;;;;;;7.73;4.30;;;;;15.90;101593.00;;;;10450042;28;20589;-80
2021/05/27 16:49:10;;;;;;;8.87;4.30;;;;;15.60;101604.00;;;;10429839;28;20561;-80
2021/05/27 16:54:14;;;;;;;8.47;4.47;;;;;15.10;101612.00;;;;10465715;28;20287;-80
2021/05/27 16:59:23;;;;;;;10.97;4.67;;;;;14.90;101607.00;;;;10468694;28;20201;-81
2021/05/27 17:04:25;;;;;;;8.87;5.17;;;;;15.40;101622.00;;;;10477828;28;20530;-81
2021/05/27 17:09:27;;;;;;;8.93;3.70;;;;;15.80;101618.00;;;;10465736;28;20267;-82
2021/05/27 17:14:31;;;;;;;7.83;4.43;;;;;15.50;101609.00;;;;10489846;28;20258;-80
2021/05/27 17:19:33;;;;;;;12.87;5.00;;;;;15.40;101629.00;;;;10512211;28;20190;-80
2021/05/27 17:24:36;;;;;;;9.10;4.33;;;;;15.10;101631.00;;;;10463588;28;20985;-81
2021/05/27 17:29:38;;;;;;;6.67;4.10;;;;;14.90;101631.00;;;;10465270;28;20252;-81
2021/05/27 17:34:39;;;;;;;6.90;3.40;;;;;14.90;101630.00;;;;10449316;28;20221;-80
2021/05/27 17:39:42;;;;;;;7.70;3.70;;;;;14.70;101631.00;;;;10449630;28;20221;-80
2021/05/27 17:44:44;;;;;;;7.33;3.03;;;;;14.70;101643.00;;;;10476440;28;20690;-81
2021/05/27 17:49:46;;;;;;;9.40;3.60;;;;;14.70;101649.00;;;;10473217;28;20201;-80
2021/05/27 17:54:48;;;;;;;5.70;3.33;;;;;14.60;101654.00;;;;10480505;28;20243;-79
2021/05/27 17:59:50;;;;;;;5.77;3.77;;;;;14.40;101651.00;;;;10472904;28;20217;-81
2021/05/27 18:04:53;;;;;;;6.20;2.60;;;;;14.40;101665.00;;;;10455415;28;20259;-80
2021/05/27 18:09:54;;;;;;;5.77;3.50;;;;;14.20;101659.00;;;;10427837;28;20213;-80
2021/05/27 18:14:57;;;;;;;8.13;2.63;;;;;13.90;101671.00;;;;10485103;28;20205;-80
2021/05/27 18:19:59;;;;;;;7.33;2.87;;;;;13.80;101680.00;;;;10474096;28;20765;-81
2021/05/27 18:25:03;;;;;;;5.83;2.03;;;;;13.80;101675.00;;;;10461240;28;20203;-81
2021/05/27 18:30:07;;;;;;;4.90;2.10;;;;;13.80;101680.00;;;;10502957;28;20959;-80
2021/05/27 18:35:13;;;;;;;5.47;2.50;;;;;13.80;101678.00;;;;10467800;28;20228;-80
2021/05/27 18:40:15;;;;;;;6.33;2.43;;;;;13.60;101682.00;;;;10504499;28;20222;-80
2021/05/27 18:45:17;;;;;;;6.23;2.00;;;;;13.50;101679.00;;;;10476362;28;20209;-80
2021/05/27 18:50:19;;;;;;;3.60;2.00;;;;;13.40;101685.00;;;;10480600;28;20212;-81
2021/05/27 18:55:21;;;;;;;5.53;2.50;;;;;13.00;101679.00;;;;10486564;28;20704;-80
2021/05/27 19:00:23;;;;;;;5.37;2.50;;;;;13.00;101678.00;;;;10473922;28;20219;-80
2021/05/27 19:05:26;;;;;;;6.83;2.40;;;;;12.80;101683.00;;;;10485716;28;20200;-80
2021/05/27 19:10:28;;;;;;;4.53;2.60;;;;;13.30;101694.00;;;;10503742;28;20676;-81
2021/05/27 19:15:30;;;;;;;6.37;3.00;;;;;13.60;101697.00;;;;10462312;28;20228;-79
2021/05/27 19:20:33;;;;;;;6.60;3.23;;;;;12.90;101709.00;;;;10481748;28;20220;-81
2021/05/27 19:25:35;;;;;;;7.07;3.27;;;;;12.30;101712.00;;;;10494674;28;20205;-80
2021/05/27 19:30:37;;;;;;;5.47;3.10;;;;;11.80;101715.00;;;;10472112;28;20209;-80
2021/05/27 19:35:39;;;;;;;6.63;3.13;;;;;11.50;101727.00;;;;10451934;28;20695;-79
2021/05/27 19:40:41;;;;;;;8.00;3.13;;;;;11.20;101741.00;;;;10478501;28;20278;-80
2021/05/27 19:45:43;;;;;;;6.37;3.60;;;;;11.00;101740.00;;;;10478195;28;20193;-80
2021/05/27 19:50:45;;;;;;;7.77;3.40;;;;;10.80;101744.00;;;;10506064;28;20205;-80
2021/05/27 19:55:47;;;;;;;11.80;4.33;;;;;10.60;101751.00;;;;10472741;28;20197;-79
2021/05/27 20:00:49;;;;;;;8.40;3.80;;;;;10.40;101765.00;;;;10509336;28;20282;-80
2021/05/27 20:05:51;;;;;;;5.73;3.30;;;;;10.30;101758.00;;;;10435425;28;20239;-81
2021/05/27 20:10:53;;;;;;;10.50;4.20;;;;;10.20;101776.00;;;;10476087;28;20204;-79
2021/05/27 20:15:58;;;;;;;11.17;4.20;;;;;10.00;101774.00;;;;10490775;28;20215;-80
2021/05/27 20:21:02;;;;;;;9.03;3.90;;;;;9.90;101786.00;;;;10493691;28;20216;-79
2021/05/27 20:26:05;;;;;;;10.17;4.00;;;;;9.80;101787.00;;;;10458242;28;20205;-79
2021/05/27 20:31:06;;;;;;;10.60;4.90;;;;;9.70;101789.00;;;;10472801;28;20209;-79
2021/05/27 20:36:08;;;;;;;9.13;4.50;;;;;9.70;101799.00;;;;10500366;28;20214;-79
2021/05/27 20:41:11;;;;;;;12.03;4.27;;;;;9.50;101810.00;;;;10508543;28;20274;-79
2021/05/27 20:46:15;;;;;;;15.70;7.07;;;;;9.50;101810.00;;;;10498729;28;20248;-79
2021/05/27 20:51:17;;;;;;;12.70;5.17;;;;;9.60;101803.00;;;;10488125;28;20254;-80
2021/05/27 20:56:19;;;;;;;13.03;5.83;;;;;9.50;101812.00;;;;10457902;28;20197;-80
2021/05/27 21:01:22;;;;;;;11.07;4.60;;;;;9.40;101822.00;;;;10474470;28;20227;-79
2021/05/27 21:06:24;;;;;;;9.20;4.93;;;;;9.30;101814.00;;;;10498203;28;20193;-79
2021/05/27 21:11:26;;;;;;;9.30;6.23;;;;;9.30;101824.00;;;;10481371;28;20196;-79
2021/05/27 21:16:28;;;;;;;12.50;5.60;;;;;9.20;101820.00;;;;10480467;28;20218;-80
2021/05/27 21:21:30;;;;;;;9.93;5.93;;;;;9.00;101823.00;;;;10500982;28;20221;-80
2021/05/27 21:26:31;;;;;;;11.97;5.57;;;;;8.90;101820.00;;;;10461860;28;20324;-80
2021/05/27 21:31:33;;;;;;;12.20;5.30;;;;;8.90;101820.00;;;;10485342;28;20738;-80
2021/05/27 21:36:35;;;;;;;12.50;6.47;;;;;8.90;101823.00;;;;10489111;28;20206;-80
2021/05/27 21:41:37;;;;;;;13.07;6.63;;;;;8.70;101818.00;;;;10508865;28;20228;-79
2021/05/27 21:46:39;;;;;;;15.30;6.90;;;;;8.50;101825.00;;;;10475264;28;20209;-80
2021/05/27 21:51:41;;;;;;;13.13;6.37;;;;;8.40;101833.00;;;;10482611;28;20258;-79
2021/05/27 21:56:43;;;;;;;13.93;5.93;;;;;8.30;101823.00;;;;10519360;28;20226;-78
2021/05/27 22:01:44;;;;;;;15.50;7.07;;;;;8.20;101823.00;;;;10477840;28;20214;-79
2021/05/27 22:06:46;;;;;;;15.27;7.73;;;;;8.20;101827.00;;;;10473674;28;21125;-79
2021/05/27 22:11:48;;;;;;;11.77;7.07;;;;;8.10;101830.00;;;;10509591;28;20246;-79
2021/05/27 22:16:50;;;;;;;13.20;6.73;;;;;8.00;101819.00;;;;10464115;28;20225;-80
2021/05/27 22:21:52;;;;;;;16.67;7.53;;;;;7.90;101819.00;;;;10484691;28;20264;-79
2021/05/27 22:26:56;;;;;;;16.27;6.97;;;;;7.90;101818.00;;;;10451867;28;20232;-80
2021/05/27 22:31:58;;;;;;;15.90;8.13;;;;;7.80;101825.00;;;;10466068;28;20244;-79
2021/05/27 22:36:59;;;;;;;15.03;7.97;;;;;7.70;101819.00;;;;10486402;28;20202;-79
2021/05/27 22:42:02;;;;;;;15.83;8.10;;;;;7.70;101821.00;;;;10519777;28;20300;-78
2021/05/27 22:47:04;;;;;;;14.50;7.73;;;;;7.60;101820.00;;;;10469924;28;20206;-78
2021/05/27 22:52:06;;;;;;;17.20;7.93;;;;;7.50;101822.00;;;;10420543;28;20285;-79
2021/05/27 22:57:08;;;;;;;13.90;8.37;;;;;7.50;101823.00;;;;10468577;28;20231;-78
2021/05/27 23:02:43;;;;;;;19.97;9.00;;;;;7.40;101818.00;;;;10487133;28;21000;-78
2021/05/27 23:07:45;;;;;;;15.03;8.33;;;;;7.40;101812.00;;;;10500556;28;20269;-79
2021/05/27 23:12:47;;;;;;;20.77;10.37;;;;;7.40;101822.00;;;;10519388;28;20204;-79
2021/05/27 23:17:49;;;;;;;18.37;9.80;;;;;7.30;101820.00;;;;10481770;28;20203;-79
2021/05/27 23:22:51;;;;;;;17.63;10.63;;;;;7.20;101819.00;;;;10481690;28;20233;-79
2021/05/27 23:27:53;;;;;;;13.97;8.93;;;;;7.20;101825.00;;;;10465975;28;20201;-79
2021/05/27 23:32:55;;;;;;;23.77;9.83;;;;;7.20;101824.00;;;;10468376;28;20221;-79
2021/05/27 23:37:57;;;;;;;19.13;10.60;;;;;7.10;101815.00;;;;10479904;28;20193;-78
2021/05/27 23:42:59;;;;;;;18.53;9.93;;;;;7.10;101818.00;;;;10460134;28;20235;-78
2021/05/27 23:48:01;;;;;;;16.57;8.87;;;;;7.00;101814.00;;;;10472614;28;20193;-78
2021/05/27 23:53:03;;;;;;;14.23;9.03;;;;;7.00;101813.00;;;;10479886;28;20255;-78
2021/05/27 23:58:05;;;;;;;17.97;9.50;;;;;6.90;101816.00;;;;10480283;28;20259;-78
